Time;durP1;ratioP1;P1;durP2;ratioP2;P2;SDS_P1;SDS_P2;PMS_P1;PMS_P2;Temp;Humidity;BMP_temperature;BMP_pressure;BME280_temperature;BME280_humidity;BME280_pressure;Samples;Min_cycle;Max_cycle;Signal;HPM_P1;HPM_P2
2023/06/23 00:00:37;;;;;;;19.45;11.98;;;17.60;99.90;;;;;;5051796;28;20041;-48
2023/06/23 00:03:03;;;;;;;15.80;10.07;;;17.70;99.90;;;;;;5051421;28;20041;-48
2023/06/23 00:05:28;;;;;;;15.25;11.05;;;17.70;99.90;;;;;;5051723;28;20532;-47
2023/06/23 00:07:54;;;;;;;13.13;10.63;;;17.70;99.90;;;;;;5050200;28;20045;-51
2023/06/23 00:10:20;;;;;;;14.70;11.88;;;17.70;99.90;;;;;;5051122;28;20086;-47
2023/06/23 00:12:47;;;;;;;13.43;11.20;;;17.70;99.90;;;;;;5051148;28;20041;-48
2023/06/23 00:15:14;;;;;;;14.77;10.88;;;17.60;99.90;;;;;;5051077;28;20037;-48
2023/06/23 00:17:43;;;;;;;16.35;12.27;;;17.60;99.90;;;;;;5051195;28;20037;-50
2023/06/23 00:20:13;;;;;;;18.27;11.52;;;17.60;99.90;;;;;;5051554;28;20371;-47
2023/06/23 00:22:40;;;;;;;15.60;11.25;;;17.60;99.90;;;;;;5051351;28;20123;-50
2023/06/23 00:25:09;;;;;;;14.05;11.65;;;17.60;99.90;;;;;;5049362;28;20045;-51
2023/06/23 00:27:39;;;;;;;15.80;11.68;;;17.60;99.90;;;;;;5051808;28;20033;-48
2023/06/23 00:30:05;;;;;;;20.30;12.23;;;17.60;99.90;;;;;;5051055;28;20596;-48
2023/06/23 00:32:30;;;;;;;;;;;17.60;99.90;;;;;;5052158;28;20041;-47
2023/06/23 00:34:56;;;;;;;15.68;11.70;;;17.60;99.90;;;;;;5058583;28;20075;-47
2023/06/23 00:37:21;;;;;;;13.80;11.02;;;17.60;99.90;;;;;;5058497;28;20044;-49
2023/06/23 00:39:48;;;;;;;15.88;11.07;;;17.60;99.90;;;;;;5067018;28;20055;-49
2023/06/23 00:42:13;;;;;;;16.45;11.38;;;17.60;99.90;;;;;;5062136;28;20052;-49
2023/06/23 00:44:39;;;;;;;16.38;11.48;;;17.60;99.90;;;;;;5050917;28;20413;-50
2023/06/23 00:47:05;;;;;;;15.00;12.00;;;17.60;99.90;;;;;;5061716;28;20065;-50
2023/06/23 00:49:34;;;;;;;13.82;11.90;;;17.60;99.90;;;;;;5055591;28;20041;-51
2023/06/23 00:52:02;;;;;;;16.55;13.07;;;17.60;99.90;;;;;;5057059;28;20040;-48
2023/06/23 00:54:28;;;;;;;14.13;10.80;;;17.60;99.90;;;;;;5050759;28;20180;-47
2023/06/23 00:57:00;;;;;;;18.83;13.15;;;17.60;99.90;;;;;;5051354;28;20434;-47
2023/06/23 00:59:29;;;;;;;17.42;13.07;;;17.60;99.90;;;;;;5050652;28;20048;-53
2023/06/23 01:01:59;;;;;;;17.75;12.32;;;17.60;99.90;;;;;;5051132;28;20401;-47
2023/06/23 01:04:26;;;;;;;17.65;12.13;;;17.60;99.90;;;;;;5050309;28;20044;-47
2023/06/23 01:07:00;;;;;;;16.42;12.10;;;17.60;99.90;;;;;;5050752;28;20041;-50
2023/06/23 01:09:46;;;;;;;19.05;13.10;;;17.60;99.90;;;;;;5062022;28;20493;-47
2023/06/23 01:12:21;;;;;;;14.18;12.70;;;17.60;99.90;;;;;;5070380;28;20045;-47
2023/06/23 01:14:54;;;;;;;16.58;13.05;;;17.70;99.90;;;;;;5069592;28;20082;-48
2023/06/23 01:17:46;;;;;;;16.02;12.00;;;17.60;99.90;;;;;;5070070;28;20041;-48
2023/06/23 01:20:25;;;;;;;17.23;13.40;;;17.70;99.90;;;;;;4973535;28;20054;-47
2023/06/23 01:23:06;;;;;;;18.23;12.82;;;17.70;99.90;;;;;;4969244;28;20162;-47
2023/06/23 01:25:54;;;;;;;16.20;13.02;;;17.70;99.90;;;;;;4968033;28;20047;-47
2023/06/23 01:28:34;;;;;;;15.82;12.23;;;17.60;99.90;;;;;;4968440;28;20042;-47
2023/06/23 01:31:02;;;;;;;17.88;12.55;;;17.60;99.90;;;;;;4969688;28;20504;-47
2023/06/23 01:33:37;;;;;;;16.73;13.05;;;17.60;99.90;;;;;;4952291;28;20122;-48
2023/06/23 01:36:07;;;;;;;19.48;13.15;;;17.60;99.90;;;;;;4968073;28;20161;-48
2023/06/23 01:38:36;;;;;;;16.95;12.43;;;17.60;99.90;;;;;;4968267;28;20097;-47
2023/06/23 01:41:06;;;;;;;16.42;12.45;;;17.60;99.90;;;;;;4967976;28;20042;-49
2023/06/23 01:43:35;;;;;;;15.77;13.15;;;17.60;99.90;;;;;;4952478;28;20154;-47
2023/06/23 01:46:09;;;;;;;19.25;13.43;;;17.60;99.90;;;;;;4968187;28;20085;-48
2023/06/23 01:48:40;;;;;;;15.05;12.25;;;17.60;99.90;;;;;;4967757;28;20042;-48
2023/06/23 01:51:07;;;;;;;19.38;13.02;;;17.60;99.90;;;;;;4969939;28;20121;-47
2023/06/23 01:53:33;;;;;;;22.35;13.68;;;17.50;99.90;;;;;;4976966;28;20054;-47
2023/06/23 01:56:05;;;;;;;14.77;12.10;;;17.50;99.90;;;;;;4983054;28;20038;-47
2023/06/23 01:58:33;;;;;;;14.10;11.65;;;17.50;99.90;;;;;;5050884;28;20045;-50
2023/06/23 02:00:59;;;;;;;21.23;12.80;;;17.50;99.90;;;;;;5048911;28;20525;-47
2023/06/23 02:03:27;;;;;;;17.10;11.95;;;17.50;99.90;;;;;;5051381;28;20041;-49
2023/06/23 02:05:55;;;;;;;22.42;13.20;;;17.50;99.90;;;;;;5054875;28;20068;-46
2023/06/23 02:08:23;;;;;;;14.85;11.13;;;17.50;99.90;;;;;;5048708;28;20076;-49
2023/06/23 02:10:51;;;;;;;14.25;11.23;;;17.50;99.90;;;;;;5068436;28;20033;-47
2023/06/23 02:13:20;;;;;;;15.82;11.55;;;17.50;99.90;;;;;;5067077;28;20453;-50
2023/06/23 02:15:49;;;;;;;15.27;10.57;;;17.50;99.90;;;;;;5069381;28;20043;-49
2023/06/23 02:18:16;;;;;;;14.25;11.32;;;17.50;99.90;;;;;;5068921;28;20041;-48
2023/06/23 02:20:44;;;;;;;16.73;11.65;;;17.40;99.90;;;;;;5067730;28;20067;-50
2023/06/23 02:23:10;;;;;;;14.23;10.40;;;17.50;99.90;;;;;;5069175;28;20044;-48
2023/06/23 02:25:36;;;;;;;;;;;17.40;99.90;;;;;;5069826;28;20041;-50
2023/06/23 02:28:02;;;;;;;13.32;10.35;;;17.50;99.90;;;;;;5068401;28;19959;-50
2023/06/23 02:30:29;;;;;;;;;;;17.50;99.90;;;;;;5068183;28;20178;-49
2023/06/23 02:32:56;;;;;;;16.60;9.85;;;17.50;99.90;;;;;;5049322;28;20003;-51
2023/06/23 02:35:22;;;;;;;16.38;11.38;;;17.50;99.90;;;;;;5048869;28;20048;-53
2023/06/23 02:37:55;;;;;;;15.93;11.82;;;17.50;99.90;;;;;;5048240;28;20498;-49
2023/06/23 02:40:25;;;;;;;15.98;11.23;;;17.50;99.90;;;;;;5048694;28;20068;-49
2023/06/23 02:43:14;;;;;;;11.30;10.20;;;17.50;99.90;;;;;;5050779;28;20052;-50
2023/06/23 02:45:43;;;;;;;18.75;11.32;;;17.50;99.90;;;;;;5049313;28;20041;-47
2023/06/23 02:48:15;;;;;;;16.33;12.07;;;17.40;99.90;;;;;;5048792;28;20048;-51
2023/06/23 02:50:41;;;;;;;18.15;12.10;;;17.50;99.90;;;;;;5048952;28;20042;-51
2023/06/23 02:53:10;;;;;;;16.08;12.02;;;17.50;99.90;;;;;;5049606;28;20128;-51
2023/06/23 02:55:40;;;;;;;18.73;12.88;;;17.40;99.90;;;;;;5048770;28;20448;-50
2023/06/23 02:58:14;;;;;;;21.10;12.38;;;17.40;99.90;;;;;;5048760;28;20043;-47
2023/06/23 03:00:40;;;;;;;17.35;13.60;;;17.40;99.90;;;;;;5048860;28;20049;-49
2023/06/23 03:03:12;;;;;;;18.95;13.05;;;17.40;99.90;;;;;;5048930;28;20108;-47
2023/06/23 03:05:38;;;;;;;18.02;13.45;;;17.40;99.90;;;;;;5048318;28;20037;-47
2023/06/23 03:08:05;;;;;;;20.52;14.00;;;17.40;99.90;;;;;;5048682;28;20041;-47
2023/06/23 03:10:31;;;;;;;18.35;12.43;;;17.40;99.90;;;;;;5047614;28;20551;-47
2023/06/23 03:12:59;;;;;;;18.88;12.80;;;17.40;99.90;;;;;;5049889;28;20041;-47
2023/06/23 03:15:25;;;;;;;18.42;13.13;;;17.40;99.90;;;;;;5048712;28;20037;-47
2023/06/23 03:17:56;;;;;;;18.17;11.65;;;17.30;99.90;;;;;;5049743;28;20124;-48
2023/06/23 03:20:26;;;;;;;18.42;12.25;;;17.30;99.90;;;;;;5068821;28;20040;-48
2023/06/23 03:23:02;;;;;;;17.45;11.65;;;17.30;99.90;;;;;;5063398;28;20563;-50
2023/06/23 03:25:28;;;;;;;17.20;12.23;;;17.30;99.90;;;;;;5072426;28;20068;-49
2023/06/23 03:27:57;;;;;;;15.13;11.52;;;17.30;99.90;;;;;;5057710;28;20037;-49
2023/06/23 03:30:45;;;;;;;17.60;11.85;;;17.30;99.90;;;;;;5052144;28;20540;-48
2023/06/23 03:33:27;;;;;;;16.48;12.02;;;17.30;99.90;;;;;;5065482;28;20036;-47
2023/06/23 03:35:57;;;;;;;18.30;12.55;;;17.30;99.90;;;;;;5072044;28;20441;-50
2023/06/23 03:38:24;;;;;;;16.67;13.00;;;17.20;99.90;;;;;;5055359;28;20116;-47
2023/06/23 03:41:07;;;;;;;18.95;11.88;;;17.30;99.90;;;;;;5051872;28;20041;-47
2023/06/23 03:43:41;;;;;;;14.38;10.60;;;17.20;99.90;;;;;;5063241;28;20044;-48
2023/06/23 03:46:23;;;;;;;17.55;11.52;;;17.20;99.90;;;;;;5052375;28;20398;-48
2023/06/23 03:48:52;;;;;;;14.52;11.27;;;17.20;99.90;;;;;;5069535;28;20174;-47
2023/06/23 03:51:20;;;;;;;17.88;12.25;;;17.20;99.90;;;;;;5072132;28;20422;-49
2023/06/23 03:53:47;;;;;;;15.48;11.45;;;17.20;99.90;;;;;;5068316;28;20573;-48
2023/06/23 03:56:15;;;;;;;18.17;11.70;;;17.20;99.90;;;;;;5071816;28;20055;-47
2023/06/23 03:58:43;;;;;;;17.88;12.80;;;17.20;99.90;;;;;;5054806;28;20411;-50
2023/06/23 04:01:09;;;;;;;15.73;11.95;;;17.20;99.90;;;;;;5051899;28;20045;-47
2023/06/23 04:03:38;;;;;;;17.85;13.00;;;17.20;99.90;;;;;;5054246;28;20043;-49
2023/06/23 04:06:06;;;;;;;23.35;14.25;;;17.20;99.90;;;;;;5051379;28;20122;-47
2023/06/23 04:08:34;;;;;;;17.10;13.60;;;17.20;99.90;;;;;;5063980;28;20130;-47
2023/06/23 04:11:01;;;;;;;21.58;13.82;;;17.10;99.90;;;;;;5069861;28;20056;-47
2023/06/23 04:13:29;;;;;;;18.00;14.15;;;17.10;99.90;;;;;;5058668;28;20045;-50
2023/06/23 04:15:56;;;;;;;18.75;13.80;;;17.10;99.90;;;;;;5061915;28;20152;-47
2023/06/23 04:18:24;;;;;;;17.38;13.98;;;17.10;99.90;;;;;;5057959;28;20047;-50
2023/06/23 04:20:52;;;;;;;20.98;13.10;;;17.10;99.90;;;;;;5060265;28;20072;-48
2023/06/23 04:23:23;;;;;;;20.42;13.73;;;17.10;99.90;;;;;;5062708;28;20570;-47
2023/06/23 04:25:50;;;;;;;19.90;14.32;;;17.10;99.90;;;;;;5057732;28;20076;-47
2023/06/23 04:28:19;;;;;;;21.65;15.10;;;17.10;99.90;;;;;;5059123;28;20051;-47
2023/06/23 04:30:46;;;;;;;22.90;14.43;;;17.10;99.90;;;;;;5071151;28;20040;-47
2023/06/23 04:33:11;;;;;;;21.90;14.55;;;17.10;99.90;;;;;;5070670;28;20045;-47
2023/06/23 04:35:37;;;;;;;25.10;14.00;;;17.10;99.90;;;;;;5063885;28;20079;-47
2023/06/23 04:38:08;;;;;;;15.90;12.85;;;17.10;99.90;;;;;;5055806;28;20037;-47
2023/06/23 04:40:43;;;;;;;18.33;13.40;;;17.20;99.90;;;;;;5071141;28;20040;-48
2023/06/23 04:43:23;;;;;;;14.52;12.38;;;17.30;99.90;;;;;;5064756;28;20120;-50
2023/06/23 04:45:56;;;;;;;23.60;13.98;;;17.30;99.90;;;;;;5057082;28;20043;-51
2023/06/23 04:48:26;;;;;;;21.95;14.40;;;17.30;99.90;;;;;;5063252;28;20033;-48
2023/06/23 04:50:56;;;;;;;20.45;12.50;;;17.20;99.90;;;;;;5050634;28;20116;-47
2023/06/23 04:53:32;;;;;;;17.73;12.68;;;17.20;99.90;;;;;;5057249;28;20056;-47
2023/06/23 04:56:02;;;;;;;18.15;12.95;;;17.30;99.90;;;;;;5065853;28;20045;-47
2023/06/23 04:58:31;;;;;;;20.83;14.50;;;17.30;99.90;;;;;;5051870;28;20444;-47
2023/06/23 05:00:59;;;;;;;19.08;13.95;;;17.30;99.90;;;;;;5050366;28;20037;-49
2023/06/23 05:03:27;;;;;;;19.55;13.32;;;17.30;99.90;;;;;;5054141;28;20037;-53
2023/06/23 05:05:55;;;;;;;21.85;13.63;;;17.30;99.90;;;;;;5050723;28;20132;-51
2023/06/23 05:08:24;;;;;;;23.48;13.63;;;17.30;99.90;;;;;;5050858;28;20036;-53
2023/06/23 05:10:51;;;;;;;15.60;13.68;;;17.30;99.90;;;;;;5050186;28;20569;-52
2023/06/23 05:13:19;;;;;;;17.83;13.85;;;17.40;99.90;;;;;;5054875;28;20457;-49
2023/06/23 05:15:47;;;;;;;19.05;12.70;;;17.40;99.90;;;;;;5067270;28;20044;-51
2023/06/23 05:18:14;;;;;;;14.70;12.20;;;17.40;99.90;;;;;;5069152;28;20043;-49
2023/06/23 05:20:41;;;;;;;15.60;12.13;;;17.40;99.90;;;;;;5057137;28;20044;-50
2023/06/23 05:23:08;;;;;;;17.23;11.25;;;17.40;99.90;;;;;;5049724;28;20048;-49
2023/06/23 05:25:36;;;;;;;21.77;12.40;;;17.40;99.90;;;;;;5049956;28;20086;-52
2023/06/23 05:28:03;;;;;;;19.90;10.93;;;17.40;99.90;;;;;;5049868;28;20040;-53
2023/06/23 05:30:30;;;;;;;18.98;12.80;;;17.40;99.90;;;;;;5049586;28;20517;-50
2023/06/23 05:32:58;;;;;;;19.55;12.15;;;17.40;99.90;;;;;;5050273;28;20321;-50
2023/06/23 05:35:25;;;;;;;19.45;11.55;;;17.50;99.90;;;;;;5065013;28;20044;-55
2023/06/23 05:37:51;;;;;;;14.10;11.98;;;17.50;99.90;;;;;;5069431;28;20048;-52
2023/06/23 05:40:17;;;;;;;18.00;12.45;;;17.50;99.90;;;;;;5068399;28;20400;-51
2023/06/23 05:42:43;;;;;;;21.00;12.50;;;17.50;99.90;;;;;;5068540;28;20221;-50
2023/06/23 05:45:10;;;;;;;20.17;13.27;;;17.50;99.90;;;;;;5055633;28;20051;-50
2023/06/23 05:47:45;;;;;;;21.42;12.95;;;17.50;99.90;;;;;;5047727;28;20130;-50
2023/06/23 05:50:26;;;;;;;18.38;11.93;;;17.50;99.90;;;;;;5050440;28;20044;-49
2023/06/23 05:53:06;;;;;;;15.57;11.90;;;17.50;99.90;;;;;;5049928;28;20086;-50
2023/06/23 05:55:34;;;;;;;19.52;12.05;;;17.60;99.90;;;;;;5065746;28;20373;-50
2023/06/23 05:58:04;;;;;;;14.43;12.35;;;17.60;99.90;;;;;;5068813;28;20041;-50
2023/06/23 06:00:35;;;;;;;14.85;11.25;;;17.60;99.90;;;;;;5051366;28;20147;-52
2023/06/23 06:03:06;;;;;;;12.85;11.25;;;17.60;99.90;;;;;;5053324;28;20041;-49
2023/06/23 06:05:33;;;;;;;16.63;12.38;;;17.60;99.90;;;;;;5056490;28;20099;-50
2023/06/23 06:08:00;;;;;;;15.55;11.80;;;17.70;99.90;;;;;;5058718;28;20044;-51
2023/06/23 06:10:27;;;;;;;19.73;12.63;;;17.70;99.90;;;;;;5050496;28;20044;-49
2023/06/23 06:12:54;;;;;;;20.73;12.20;;;17.70;99.90;;;;;;5054139;28;20048;-55
2023/06/23 06:15:19;;;;;;;16.60;11.73;;;17.70;99.90;;;;;;5054574;28;20399;-50
2023/06/23 06:17:47;;;;;;;12.30;10.23;;;17.70;99.90;;;;;;5057068;28;20033;-50
2023/06/23 06:20:15;;;;;;;14.77;9.95;;;17.70;99.90;;;;;;5049882;28;20084;-53
2023/06/23 06:22:45;;;;;;;20.15;10.70;;;17.70;99.90;;;;;;5068857;28;20505;-50
2023/06/23 06:25:13;;;;;;;15.60;10.65;;;17.80;99.90;;;;;;5066255;28;20037;-54
2023/06/23 06:27:46;;;;;;;15.45;9.85;;;17.80;99.90;;;;;;5066971;28;20040;-50
2023/06/23 06:30:13;;;;;;;13.68;10.00;;;17.80;99.90;;;;;;5060940;28;20390;-51
2023/06/23 06:32:40;;;;;;;18.10;10.40;;;17.80;99.90;;;;;;5058054;28;20456;-49
2023/06/23 06:35:10;;;;;;;13.73;10.50;;;17.80;99.90;;;;;;5059973;28;20040;-50
2023/06/23 06:37:38;;;;;;;16.90;10.38;;;17.80;99.90;;;;;;5060827;28;20086;-50
2023/06/23 06:40:10;;;;;;;17.80;11.32;;;17.80;99.90;;;;;;5053791;28;20043;-52
2023/06/23 06:42:36;;;;;;;13.13;11.40;;;17.80;99.90;;;;;;5062540;28;20032;-53
2023/06/23 06:45:03;;;;;;;15.00;11.07;;;17.80;99.90;;;;;;5054881;28;20504;-53
2023/06/23 06:47:29;;;;;;;21.73;12.35;;;17.90;99.90;;;;;;5053071;28;20092;-50
2023/06/23 06:49:57;;;;;;;18.70;11.02;;;18.00;99.90;;;;;;5061278;28;20069;-49
2023/06/23 06:52:24;;;;;;;15.50;11.00;;;18.10;99.90;;;;;;5062476;28;20047;-50
2023/06/23 06:54:52;;;;;;;17.08;11.85;;;18.20;99.90;;;;;;5058209;28;20309;-50
2023/06/23 06:57:18;;;;;;;16.65;10.15;;;18.40;99.90;;;;;;5063094;28;20045;-49
2023/06/23 06:59:44;;;;;;;17.77;10.90;;;18.60;99.90;;;;;;5063846;28;20533;-52
2023/06/23 07:02:10;;;;;;;14.07;10.02;;;18.80;99.90;;;;;;5054218;28;20132;-49
2023/06/23 07:04:36;;;;;;;;;;;18.90;99.90;;;;;;5054226;28;20032;-50
2023/06/23 07:07:02;;;;;;;13.88;9.70;;;19.00;99.90;;;;;;5064109;28;20404;-52
2023/06/23 07:09:27;;;;;;;16.05;9.23;;;19.20;99.90;;;;;;5051973;28;20044;-51
2023/06/23 07:11:58;;;;;;;14.20;9.05;;;19.30;99.90;;;;;;5066666;28;20041;-50
2023/06/23 07:14:24;;;;;;;11.07;8.20;;;19.40;99.90;;;;;;5072022;28;20053;-51
2023/06/23 07:16:49;;;;;;;9.60;7.78;;;19.60;99.90;;;;;;5072745;28;20528;-51
2023/06/23 07:19:15;;;;;;;;;;;19.80;99.90;;;;;;5072015;28;20554;-50
2023/06/23 07:21:41;;;;;;;15.02;8.18;;;19.90;99.90;;;;;;5071305;28;19917;-54
2023/06/23 07:24:06;;;;;;;;;;;20.00;99.90;;;;;;5058094;28;20207;-50
2023/06/23 07:26:33;;;;;;;11.77;7.50;;;20.10;99.90;;;;;;5052805;28;20025;-52
2023/06/23 07:28:58;;;;;;;12.88;7.28;;;20.20;99.90;;;;;;5051547;28;20045;-50
2023/06/23 07:31:25;;;;;;;;;;;20.40;99.90;;;;;;5052701;28;20056;-52
2023/06/23 07:33:51;;;;;;;10.43;7.03;;;20.50;99.90;;;;;;5051999;28;20400;-50
2023/06/23 07:36:16;;;;;;;;;;;20.50;99.90;;;;;;5052727;28;20041;-52
2023/06/23 07:38:42;;;;;;;14.90;6.22;;;20.60;99.90;;;;;;5051311;28;19927;-50
2023/06/23 07:41:08;;;;;;;;;;;20.70;99.90;;;;;;5052643;28;20043;-50
2023/06/23 07:43:33;;;;;;;9.70;6.53;;;20.80;99.90;;;;;;5052351;28;19920;-53
2023/06/23 07:45:59;;;;;;;;;;;20.90;99.90;;;;;;5067718;28;20041;-52
2023/06/23 07:48:24;;;;;;;7.60;5.38;;;21.00;99.90;;;;;;5071434;28;20018;-49
2023/06/23 07:50:50;;;;;;;;;;;21.10;99.90;;;;;;5072091;28;20037;-51
2023/06/23 07:53:15;;;;;;;8.90;4.80;;;21.10;99.90;;;;;;5071418;28;19974;-51
2023/06/23 07:55:41;;;;;;;;;;;21.20;99.90;;;;;;5063964;28;20090;-52
2023/06/23 07:58:06;;;;;;;9.60;5.53;;;21.20;99.90;;;;;;5071588;28;20027;-49
2023/06/23 08:00:32;;;;;;;;;;;21.30;99.90;;;;;;5071786;28;20039;-49
2023/06/23 08:02:57;;;;;;;8.13;5.65;;;21.40;99.90;;;;;;5058629;28;20390;-51
2023/06/23 08:05:23;;;;;;;;;;;21.50;99.90;;;;;;5072158;28;20044;-49
2023/06/23 08:07:49;;;;;;;6.45;5.07;;;21.70;99.90;;;;;;5062635;28;20798;-49
2023/06/23 08:10:15;;;;;;;;;;;21.70;99.90;;;;;;5052155;28;20037;-50
2023/06/23 08:12:41;;;;;;;6.93;5.10;;;21.80;99.90;;;;;;5051684;28;19917;-52
2023/06/23 08:15:07;;;;;;;10.95;6.35;;;21.90;99.90;;;;;;5051070;28;20091;-52
2023/06/23 08:17:34;;;;;;;9.50;5.22;;;21.90;99.90;;;;;;5064487;28;20036;-53
2023/06/23 08:20:00;;;;;;;6.75;4.18;;;22.00;99.90;;;;;;5070952;28;20052;-51
2023/06/23 08:22:25;;;;;;;;;;;22.20;99.90;;;;;;5071922;28;20036;-49
2023/06/23 08:24:51;;;;;;;6.32;4.90;;;22.20;99.90;;;;;;5068911;28;20401;-53
2023/06/23 08:27:16;;;;;;;6.88;4.70;;;22.30;99.90;;;;;;5068246;28;20045;-50
2023/06/23 08:29:42;;;;;;;4.35;3.95;;;22.40;99.90;;;;;;5060796;28;20063;-49
2023/06/23 08:32:07;;;;;;;5.80;4.45;;;22.40;99.90;;;;;;5066752;28;20047;-50
2023/06/23 08:34:33;;;;;;;;;;;22.50;99.90;;;;;;5062925;28;20032;-53
2023/06/23 08:36:58;;;;;;;5.65;4.15;;;22.60;99.90;;;;;;5057494;28;20080;-50
2023/06/23 08:39:24;;;;;;;8.30;3.50;;;22.70;99.90;;;;;;5059184;28;20383;-49
2023/06/23 08:41:50;;;;;;;4.32;3.75;;;22.70;99.90;;;;;;5057354;28;20045;-50
2023/06/23 08:44:18;;;;;;;3.38;3.00;;;22.80;99.90;;;;;;5059773;28;20158;-50
2023/06/23 08:46:50;;;;;;;6.43;3.70;;;22.90;99.90;;;;;;5059238;28;20075;-49
2023/06/23 08:49:20;;;;;;;4.10;3.67;;;23.00;99.90;;;;;;5057151;28;20042;-53
2023/06/23 08:51:46;;;;;;;6.88;3.65;;;23.00;99.90;;;;;;5055742;28;20107;-50
2023/06/23 08:54:12;;;;;;;4.97;3.15;;;23.10;99.90;;;;;;5062606;28;20198;-53
2023/06/23 08:56:38;;;;;;;4.38;3.20;;;23.20;99.90;;;;;;5058960;28;20095;-50
2023/06/23 08:59:03;;;;;;;4.10;3.47;;;23.30;99.90;;;;;;5056621;28;20028;-50
2023/06/23 09:01:29;;;;;;;4.43;3.35;;;23.40;99.90;;;;;;5060505;28;20482;-50
2023/06/23 09:03:55;;;;;;;4.80;3.38;;;23.40;99.90;;;;;;5055866;28;20515;-51
2023/06/23 09:06:20;;;;;;;4.40;3.70;;;23.50;99.90;;;;;;5059671;28;20378;-52
2023/06/23 09:08:46;;;;;;;4.88;3.63;;;23.60;99.90;;;;;;5057563;28;20025;-52
2023/06/23 09:11:12;;;;;;;4.30;3.17;;;23.50;99.90;;;;;;5063226;28;20153;-49
2023/06/23 09:13:41;;;;;;;8.38;3.78;;;23.60;99.90;;;;;;5055638;28;20036;-50
2023/06/23 09:16:09;;;;;;;3.65;3.35;;;23.60;99.90;;;;;;5057745;28;20465;-51
2023/06/23 09:18:40;;;;;;;5.88;3.45;;;23.60;99.90;;;;;;5054194;28;20542;-53
2023/06/23 09:21:07;;;;;;;3.35;3.05;;;23.60;99.90;;;;;;5057796;28;20071;-50
2023/06/23 09:23:34;;;;;;;3.30;3.00;;;23.70;99.90;;;;;;5059077;28;20040;-50
2023/06/23 09:26:03;;;;;;;2.67;2.33;;;23.80;99.90;;;;;;5058686;28;20451;-51
2023/06/23 09:28:31;;;;;;;3.47;3.22;;;23.90;99.90;;;;;;5057103;28;20039;-54
2023/06/23 09:31:11;;;;;;;3.55;3.25;;;24.00;99.90;;;;;;5057680;28;20029;-52
2023/06/23 09:33:46;;;;;;;4.80;3.25;;;24.00;99.90;;;;;;5057772;28;20076;-52
2023/06/23 09:36:12;;;;;;;5.22;2.88;;;24.10;99.90;;;;;;5054990;28;20044;-50
2023/06/23 09:38:38;;;;;;;2.90;2.60;;;24.20;99.90;;;;;;5054018;28;20028;-51
2023/06/23 09:41:10;;;;;;;3.63;2.78;;;24.30;99.90;;;;;;5059375;28;20064;-49
2023/06/23 09:43:42;;;;;;;5.35;2.70;;;24.30;99.90;;;;;;5054064;28;20040;-51
2023/06/23 09:46:10;;;;;;;3.20;2.40;;;24.40;99.90;;;;;;5060014;28;20390;-49
2023/06/23 09:48:36;;;;;;;4.32;1.73;;;24.50;99.90;;;;;;5053880;28;20044;-49
2023/06/23 09:51:06;;;;;;;2.25;2.05;;;24.60;99.90;;;;;;5058968;28;20501;-50
2023/06/23 09:53:34;;;;;;;2.03;1.73;;;24.60;98.90;;;;;;5054290;28;20081;-50
2023/06/23 09:56:00;;;;;;;4.55;2.03;;;24.70;99.70;;;;;;5055662;28;20040;-51
2023/06/23 09:58:37;;;;;;;2.60;1.40;;;24.70;98.80;;;;;;5054376;28;20041;-49
2023/06/23 10:01:05;;;;;;;2.22;2.00;;;24.70;98.40;;;;;;5060189;28;20036;-53
2023/06/23 10:03:31;;;;;;;4.25;2.10;;;24.80;98.30;;;;;;5056470;28;20113;-49
2023/06/23 10:05:58;;;;;;;3.78;1.85;;;24.90;97.90;;;;;;5055532;28;20040;-49
2023/06/23 10:08:28;;;;;;;4.03;1.50;;;25.00;97.30;;;;;;5058944;28;20041;-53
2023/06/23 10:10:54;;;;;;;8.10;1.95;;;25.00;97.90;;;;;;5054579;28;20044;-49
2023/06/23 10:13:21;;;;;;;3.38;1.70;;;25.00;96.90;;;;;;5055737;28;20025;-49
2023/06/23 10:15:47;;;;;;;4.07;2.08;;;25.00;97.20;;;;;;5057028;28;20063;-49
2023/06/23 10:18:13;;;;;;;3.20;1.73;;;25.10;97.10;;;;;;5055337;28;20041;-49
2023/06/23 10:20:39;;;;;;;2.08;1.95;;;25.20;96.50;;;;;;5054114;28;20506;-50
2023/06/23 10:23:05;;;;;;;3.50;1.88;;;25.20;96.10;;;;;;5056594;28;20040;-50
2023/06/23 10:25:36;;;;;;;3.13;2.20;;;25.20;96.00;;;;;;5056098;28;20439;-51
2023/06/23 10:28:07;;;;;;;2.53;1.75;;;25.20;95.60;;;;;;5057000;28;20118;-49
2023/06/23 10:30:32;;;;;;;3.58;1.77;;;25.30;95.10;;;;;;5055688;28;20040;-51
2023/06/23 10:32:59;;;;;;;3.70;2.75;;;25.30;95.60;;;;;;5064380;28;20386;-50
2023/06/23 10:35:25;;;;;;;4.35;2.35;;;25.30;95.10;;;;;;5058602;28;20097;-55
2023/06/23 10:38:14;;;;;;;2.55;1.73;;;25.40;95.20;;;;;;5057834;28;20409;-52
2023/06/23 10:40:45;;;;;;;3.67;2.13;;;25.40;94.90;;;;;;5061562;28;20047;-50
2023/06/23 10:43:11;;;;;;;3.40;2.53;;;25.30;95.20;;;;;;5058854;28;20068;-52
2023/06/23 10:45:38;;;;;;;2.17;2.00;;;25.20;95.50;;;;;;5063153;28;20437;-53
2023/06/23 10:48:04;;;;;;;2.10;1.90;;;25.20;95.70;;;;;;5060820;28;20044;-50
2023/06/23 10:50:30;;;;;;;2.65;1.90;;;25.30;95.40;;;;;;5057660;28;20047;-51
2023/06/23 10:53:08;;;;;;;3.85;2.17;;;25.40;94.90;;;;;;5060196;28;20040;-50
2023/06/23 10:55:38;;;;;;;2.40;2.20;;;25.50;94.90;;;;;;5058029;28;20045;-48
2023/06/23 10:58:16;;;;;;;3.83;2.30;;;25.70;94.70;;;;;;5061429;28;20047;-47
2023/06/23 11:01:00;;;;;;;7.10;2.55;;;25.80;94.20;;;;;;5056473;28;20477;-51
2023/06/23 11:03:31;;;;;;;2.65;2.25;;;25.80;92.50;;;;;;5061510;28;20111;-47
2023/06/23 11:05:59;;;;;;;2.17;1.90;;;25.50;92.80;;;;;;5059005;28;20149;-49
2023/06/23 11:08:44;;;;;;;3.10;1.60;;;25.50;93.60;;;;;;5057267;28;20033;-49
2023/06/23 11:11:15;;;;;;;2.25;1.70;;;25.50;92.60;;;;;;5059608;28;20406;-50
2023/06/23 11:13:48;;;;;;;1.80;1.55;;;25.50;93.50;;;;;;5060195;28;21996;-47
2023/06/23 11:16:15;;;;;;;2.90;1.80;;;25.60;93.50;;;;;;5059560;28;20045;-51
2023/06/23 11:18:49;;;;;;;2.97;2.20;;;25.70;93.70;;;;;;5058189;28;20033;-49
2023/06/23 11:21:19;;;;;;;2.35;2.17;;;25.80;92.20;;;;;;5059840;28;20039;-48
2023/06/23 11:24:11;;;;;;;2.40;1.92;;;25.80;92.20;;;;;;5059941;28;20160;-46
2023/06/23 11:26:41;;;;;;;2.25;2.05;;;25.70;91.60;;;;;;5057730;28;20044;-49
2023/06/23 11:29:16;;;;;;;2.80;2.30;;;25.70;92.10;;;;;;5061925;28;20047;-50
2023/06/23 11:32:05;;;;;;;7.22;2.72;;;25.60;91.30;;;;;;5058104;28;20045;-51
2023/06/23 11:34:58;;;;;;;4.97;1.83;;;25.80;91.90;;;;;;5061023;28;20039;-47
2023/06/23 11:37:31;;;;;;;1.80;1.70;;;25.80;91.80;;;;;;5060894;28;20045;-54
2023/06/23 11:39:57;;;;;;;2.95;1.95;;;25.90;92.10;;;;;;5056894;28;20047;-49
2023/06/23 11:42:24;;;;;;;2.75;2.17;;;26.00;92.40;;;;;;5058088;28;20040;-47
2023/06/23 11:44:50;;;;;;;3.35;2.78;;;26.00;91.80;;;;;;5056720;28;20518;-48
2023/06/23 11:47:16;;;;;;;3.60;2.08;;;26.00;92.10;;;;;;5060663;28;20043;-47
2023/06/23 11:49:42;;;;;;;1.77;1.65;;;26.10;92.10;;;;;;5059602;28;20054;-48
2023/06/23 11:52:08;;;;;;;3.42;1.75;;;26.30;92.60;;;;;;5058768;28;20119;-48
2023/06/23 11:54:35;;;;;;;3.50;1.63;;;26.40;91.90;;;;;;5056726;28;20516;-47
2023/06/23 11:57:04;;;;;;;3.58;1.38;;;26.50;91.40;;;;;;5058810;28;20329;-48
2023/06/23 11:59:38;;;;;;;1.50;1.15;;;26.50;91.00;;;;;;5056869;28;20464;-46
2023/06/23 12:02:04;;;;;;;4.13;1.58;;;26.50;91.10;;;;;;5059980;28;20032;-50
2023/06/23 12:04:31;;;;;;;4.65;1.70;;;26.60;91.40;;;;;;5057422;28;20114;-47
2023/06/23 12:06:59;;;;;;;3.40;1.30;;;26.60;90.90;;;;;;5059807;28;20036;-50
2023/06/23 12:09:25;;;;;;;2.92;1.25;;;26.60;90.80;;;;;;5057046;28;20039;-48
2023/06/23 12:11:52;;;;;;;1.40;0.85;;;26.60;90.80;;;;;;5059311;28;20040;-48
2023/06/23 12:14:18;;;;;;;1.52;0.98;;;26.70;90.10;;;;;;5058364;28;20037;-49
2023/06/23 12:16:43;;;;;;;1.40;1.20;;;26.70;90.10;;;;;;5056373;28;20190;-49
2023/06/23 12:19:09;;;;;;;2.45;1.50;;;26.70;90.10;;;;;;5059437;28;20043;-47
2023/06/23 12:21:39;;;;;;;3.92;1.60;;;26.60;90.70;;;;;;5058628;28;20035;-50
2023/06/23 12:24:09;;;;;;;2.05;1.00;;;26.70;90.00;;;;;;5058286;28;20032;-46
2023/06/23 12:26:41;;;;;;;2.45;1.63;;;26.80;89.10;;;;;;5056501;28;20410;-47
2023/06/23 12:29:09;;;;;;;2.47;1.70;;;26.90;87.60;;;;;;5057576;28;20032;-52
2023/06/23 12:31:35;;;;;;;4.03;1.55;;;26.80;87.70;;;;;;5061987;28;20079;-50
2023/06/23 12:34:01;;;;;;;3.92;1.58;;;26.60;87.70;;;;;;5056823;28;20033;-50
2023/06/23 12:36:27;;;;;;;4.10;1.10;;;26.70;89.00;;;;;;5055311;28;20045;-48
2023/06/23 12:38:55;;;;;;;2.28;1.15;;;26.70;88.10;;;;;;5055994;28;20041;-50
2023/06/23 12:41:26;;;;;;;1.92;1.42;;;26.80;88.60;;;;;;5060485;28;20045;-51
2023/06/23 12:44:03;;;;;;;2.50;1.33;;;26.80;86.40;;;;;;5056762;28;20080;-49
2023/06/23 12:46:30;;;;;;;2.00;1.48;;;26.90;88.50;;;;;;5060161;28;20044;-50
2023/06/23 12:48:56;;;;;;;3.97;1.25;;;26.90;87.80;;;;;;5056533;28;20826;-49